sensor_id;sensor_type;location;lat;lon;timestamp;pressure;altitude;pressure_sealevel;temperature;humidity
19748;BME280;10032;51.386;12.516;2023-11-19T14:15:34;99349.84;;;11.41;100.00
19748;BME280;10032;51.386;12.516;2023-11-19T14:18:00;99352.00;;;11.54;100.00
19748;BME280;10032;51.386;12.516;2023-11-19T14:20:25;99355.22;;;11.66;100.00
19748;BME280;10032;51.386;12.516;2023-11-19T14:25:10;99354.34;;;11.86;100.00
19748;BME280;10032;51.386;12.516;2023-11-19T14:27:40;99344.03;;;11.93;100.00
19748;BME280;10032;51.386;12.516;2023-11-19T14:30:06;99345.31;;;12.00;100.00
19748;BME280;10032;51.386;12.516;2023-11-19T14:32:33;99350.19;;;12.08;100.00
19748;BME280;10032;51.386;12.516;2023-11-19T14:34:59;99341.75;;;12.15;100.00
19748;BME280;10032;51.386;12.516;2023-11-19T14:37:24;99339.00;;;12.20;100.00
19748;BME280;10032;51.386;12.516;2023-11-19T14:39:50;99345.22;;;12.20;100.00
19748;BME280;10032;51.386;12.516;2023-11-19T14:42:16;99336.81;;;12.22;100.00
19748;BME280;10032;51.386;12.516;2023-11-19T14:44:42;99332.47;;;12.21;100.00
19748;BME280;10032;51.386;12.516;2023-11-19T14:47:07;99339.25;;;12.23;100.00
19748;BME280;10032;51.386;12.516;2023-11-19T14:49:34;99343.88;;;12.23;100.00
19748;BME280;10032;51.386;12.516;2023-11-19T14:52:00;99341.97;;;12.23;100.00
19748;BME280;10032;51.386;12.516;2023-11-19T14:54:25;99344.09;;;12.26;100.00
19748;BME280;10032;51.386;12.516;2023-11-19T14:56:51;99343.03;;;12.27;100.00
19748;BME280;10032;51.386;12.516;2023-11-19T14:59:17;99343.56;;;12.29;100.00
19748;BME280;10032;51.386;12.516;2023-11-19T15:01:45;99340.56;;;12.31;100.00
19748;BME280;10032;51.386;12.516;2023-11-19T15:04:10;99333.53;;;12.30;100.00
19748;BME280;10032;51.386;12.516;2023-11-19T15:06:37;99335.41;;;12.29;100.00
19748;BME280;10032;51.386;12.516;2023-11-19T15:09:02;99341.38;;;12.31;100.00
19748;BME280;10032;51.386;12.516;2023-11-19T15:11:28;99349.81;;;12.30;100.00
19748;BME280;10032;51.386;12.516;2023-11-19T15:13:53;99352.22;;;12.31;100.00
19748;BME280;10032;51.386;12.516;2023-11-19T15:16:19;99359.31;;;12.32;100.00
19748;BME280;10032;51.386;12.516;2023-11-19T15:18:50;99363.66;;;12.33;100.00
19748;BME280;10032;51.386;12.516;2023-11-19T15:21:17;99358.72;;;12.35;100.00
19748;BME280;10032;51.386;12.516;2023-11-19T15:23:43;99366.63;;;12.37;100.00
19748;BME280;10032;51.386;12.516;2023-11-19T15:26:08;99360.59;;;12.40;100.00
19748;BME280;10032;51.386;12.516;2023-11-19T15:28:36;99356.25;;;12.39;100.00
19748;BME280;10032;51.386;12.516;2023-11-19T15:31:01;99363.84;;;12.47;100.00
19748;BME280;10032;51.386;12.516;2023-11-19T15:33:27;99354.63;;;12.43;100.00
19748;BME280;10032;51.386;12.516;2023-11-19T15:35:53;99367.94;;;12.44;100.00
19748;BME280;10032;51.386;12.516;2023-11-19T15:38:19;99362.50;;;12.44;100.00
19748;BME280;10032;51.386;12.516;2023-11-19T15:40:44;99363.59;;;12.43;100.00
19748;BME280;10032;51.386;12.516;2023-11-19T15:43:10;99357.84;;;12.45;100.00
19748;BME280;10032;51.386;12.516;2023-11-19T15:45:36;99358.16;;;12.43;100.00
19748;BME280;10032;51.386;12.516;2023-11-19T15:48:04;99363.00;;;12.46;100.00
19748;BME280;10032;51.386;12.516;2023-11-19T15:50:30;99366.31;;;12.43;100.00
19748;BME280;10032;51.386;12.516;2023-11-19T15:52:56;99369.03;;;12.43;100.00
19748;BME280;10032;51.386;12.516;2023-11-19T15:55:21;99369.31;;;12.42;100.00
19748;BME280;10032;51.386;12.516;2023-11-19T15:57:47;99378.78;;;12.44;100.00
19748;BME280;10032;51.386;12.516;2023-11-19T16:00:13;99378.78;;;12.44;100.00
19748;BME280;10032;51.386;12.516;2023-11-19T16:02:42;99383.41;;;12.44;100.00
19748;BME280;10032;51.386;12.516;2023-11-19T16:05:07;99379.31;;;12.46;100.00
19748;BME280;10032;51.386;12.516;2023-11-19T16:07:34;99380.41;;;12.45;100.00
19748;BME280;10032;51.386;12.516;2023-11-19T16:10:01;99379.88;;;12.48;100.00
19748;BME280;10032;51.386;12.516;2023-11-19T16:12:29;99378.50;;;12.51;100.00
19748;BME280;10032;51.386;12.516;2023-11-19T16:14:55;99383.38;;;12.49;100.00
19748;BME280;10032;51.386;12.516;2023-11-19T16:17:20;99380.41;;;12.45;100.00
19748;BME280;10032;51.386;12.516;2023-11-19T16:19:45;99382.84;;;12.47;100.00
19748;BME280;10032;51.386;12.516;2023-11-19T16:22:11;99377.69;;;12.45;100.00
19748;BME280;10032;51.386;12.516;2023-11-19T16:24:36;99382.31;;;12.45;100.00
19748;BME280;10032;51.386;12.516;2023-11-19T16:27:03;99377.19;;;12.43;100.00
19748;BME280;10032;51.386;12.516;2023-11-19T16:29:29;99378.25;;;12.42;100.00
19748;BME280;10032;51.386;12.516;2023-11-19T16:31:54;99387.50;;;12.41;100.00
19748;BME280;10032;51.386;12.516;2023-11-19T16:34:20;99378.56;;;12.41;100.00
19748;BME280;10032;51.386;12.516;2023-11-19T16:36:45;99380.16;;;12.42;100.00
19748;BME280;10032;51.386;12.516;2023-11-19T16:39:11;99375.28;;;12.39;100.00
19748;BME280;10032;51.386;12.516;2023-11-19T16:41:38;99383.69;;;12.37;100.00
19748;BME280;10032;51.386;12.516;2023-11-19T16:44:05;99380.19;;;12.37;100.00
19748;BME280;10032;51.386;12.516;2023-11-19T16:46:30;99390.22;;;12.36;100.00
19748;BME280;10032;51.386;12.516;2023-11-19T16:48:56;99401.13;;;12.31;100.00
19748;BME280;10032;51.386;12.516;2023-11-19T16:51:21;99403.03;;;12.36;100.00
19748;BME280;10032;51.386;12.516;2023-11-19T16:53:48;99401.09;;;12.36;100.00
19748;BME280;10032;51.386;12.516;2023-11-19T16:56:17;99399.47;;;12.35;100.00
19748;BME280;10032;51.386;12.516;2023-11-19T16:58:45;99398.66;;;12.35;100.00
19748;BME280;10032;51.386;12.516;2023-11-19T17:01:11;99405.44;;;12.37;100.00
19748;BME280;10032;51.386;12.516;2023-11-19T17:03:37;99411.97;;;12.36;100.00
19748;BME280;10032;51.386;12.516;2023-11-19T17:06:03;99412.25;;;12.35;100.00
19748;BME280;10032;51.386;12.516;2023-11-19T17:08:29;99421.78;;;12.32;100.00
19748;BME280;10032;51.386;12.516;2023-11-19T17:11:01;99414.72;;;12.31;100.00
19748;BME280;10032;51.386;12.516;2023-11-19T17:13:27;99411.44;;;12.34;100.00
19748;BME280;10032;51.386;12.516;2023-11-19T17:15:53;99409.81;;;12.33;100.00
19748;BME280;10032;51.386;12.516;2023-11-19T17:18:18;99416.34;;;12.32;100.00
19748;BME280;10032;51.386;12.516;2023-11-19T17:20:44;99415.00;;;12.30;100.00
19748;BME280;10032;51.386;12.516;2023-11-19T17:23:10;99419.63;;;12.29;100.00
19748;BME280;10032;51.386;12.516;2023-11-19T17:25:36;99414.19;;;12.29;100.00
19748;BME280;10032;51.386;12.516;2023-11-19T17:28:03;99418.00;;;12.28;100.00
19748;BME280;10032;51.386;12.516;2023-11-19T17:30:32;99422.06;;;12.26;100.00
19748;BME280;10032;51.386;12.516;2023-11-19T17:32:59;99420.47;;;12.25;100.00
19748;BME280;10032;51.386;12.516;2023-11-19T17:35:24;99429.41;;;12.25;100.00
19748;BME280;10032;51.386;12.516;2023-11-19T17:37:50;99419.13;;;12.22;100.00
19748;BME280;10032;51.386;12.516;2023-11-19T17:40:16;99435.41;;;12.22;100.00
19748;BME280;10032;51.386;12.516;2023-11-19T17:42:42;99426.44;;;12.17;100.00
19748;BME280;10032;51.386;12.516;2023-11-19T17:45:07;99425.63;;;12.16;100.00
19748;BME280;10032;51.386;12.516;2023-11-19T17:47:34;99426.72;;;12.15;100.00
19748;BME280;10032;51.386;12.516;2023-11-19T17:49:59;99422.66;;;12.13;100.00
19748;BME280;10032;51.386;12.516;2023-11-19T17:52:25;99419.69;;;12.09;100.00
19748;BME280;10032;51.386;12.516;2023-11-19T17:54:50;99412.63;;;12.08;100.00
19748;BME280;10032;51.386;12.516;2023-11-19T17:57:15;99410.19;;;12.07;100.00
19748;BME280;10032;51.386;12.516;2023-11-19T17:59:41;99418.84;;;12.14;100.00
19748;BME280;10032;51.386;12.516;2023-11-19T18:02:07;99415.34;;;12.13;100.00
19748;BME280;10032;51.386;12.516;2023-11-19T18:04:33;99413.72;;;12.12;100.00
19748;BME280;10032;51.386;12.516;2023-11-19T18:07:02;99416.69;;;12.11;100.00
19748;BME280;10032;51.386;12.516;2023-11-19T18:09:28;99408.81;;;12.14;100.00
19748;BME280;10032;51.386;12.516;2023-11-19T18:11:54;99414.25;;;12.14;100.00
19748;BME280;10032;51.386;12.516;2023-11-19T18:14:19;99410.44;;;12.10;100.00
19748;BME280;10032;51.386;12.516;2023-11-19T18:16:45;99413.47;;;12.09;100.00
19748;BME280;10032;51.386;12.516;2023-11-19T18:19:11;99415.88;;;12.10;100.00
19748;BME280;10032;51.386;12.516;2023-11-19T18:21:36;99416.97;;;12.09;100.00
19748;BME280;10032;51.386;12.516;2023-11-19T18:24:02;99419.69;;;12.09;100.00
19748;BME280;10032;51.386;12.516;2023-11-19T18:26:27;99414.81;;;12.11;100.00
19748;BME280;10032;51.386;12.516;2023-11-19T18:28:53;99419.16;;;12.12;100.00
19748;BME280;10032;51.386;12.516;2023-11-19T18:31:18;99415.34;;;12.13;100.00
19748;BME280;10032;51.386;12.516;2023-11-19T18:33:44;99413.72;;;12.12;100.00
19748;BME280;10032;51.386;12.516;2023-11-19T18:36:10;99413.72;;;12.12;100.00
19748;BME280;10032;51.386;12.516;2023-11-19T18:38:36;99412.34;;;12.15;100.00
19748;BME280;10032;51.386;12.516;2023-11-19T18:41:04;99423.22;;;12.15;100.00
19748;BME280;10032;51.386;12.516;2023-11-19T18:43:30;99420.78;;;12.13;100.00
19748;BME280;10032;51.386;12.516;2023-11-19T18:45:55;99421.56;;;12.14;100.00
19748;BME280;10032;51.386;12.516;2023-11-19T18:48:21;99424.84;;;12.16;100.00
19748;BME280;10032;51.386;12.516;2023-11-19T18:50:47;99420.50;;;12.15;100.00
19748;BME280;10032;51.386;12.516;2023-11-19T18:53:12;99424.28;;;12.14;100.00
19748;BME280;10032;51.386;12.516;2023-11-19T18:55:38;99425.94;;;12.15;100.00
19748;BME280;10032;51.386;12.516;2023-11-19T18:58:04;99422.66;;;12.13;100.00
19748;BME280;10032;51.386;12.516;2023-11-19T19:00:29;99417.53;;;12.11;100.00
19748;BME280;10032;51.386;12.516;2023-11-19T19:02:54;99416.13;;;12.14;100.00
19748;BME280;10032;51.386;12.516;2023-11-19T19:05:20;99423.22;;;12.15;100.00
19748;BME280;10032;51.386;12.516;2023-11-19T19:07:45;99417.78;;;12.15;100.00
19748;BME280;10032;51.386;12.516;2023-11-19T19:10:11;99415.34;;;12.08;100.00
19748;BME280;10032;51.386;12.516;2023-11-19T19:12:40;99424.56;;;12.12;100.00
19748;BME280;10032;51.386;12.516;2023-11-19T19:15:10;99422.97;;;12.11;100.00
19748;BME280;10032;51.386;12.516;2023-11-19T19:17:37;99420.25;;;12.11;100.00
19748;BME280;10032;51.386;12.516;2023-11-19T19:20:02;99421.31;;;12.10;100.00
19748;BME280;10032;51.386;12.516;2023-11-19T19:22:29;99417.53;;;12.11;100.00
19748;BME280;10032;51.386;12.516;2023-11-19T19:24:55;99419.69;;;12.09;100.00
19748;BME280;10032;51.386;12.516;2023-11-19T19:27:21;99426.19;;;12.13;100.00
19748;BME280;10032;51.386;12.516;2023-11-19T19:29:47;99419.41;;;12.11;100.00
19748;BME280;10032;51.386;12.516;2023-11-19T19:32:12;99409.38;;;12.11;100.00
19748;BME280;10032;51.386;12.516;2023-11-19T19:34:38;99414.25;;;12.09;100.00
19748;BME280;10032;51.386;12.516;2023-11-19T19:37:03;99408.81;;;12.09;100.00
19748;BME280;10032;51.386;12.516;2023-11-19T19:39:30;99413.72;;;12.07;100.00
19748;BME280;10032;51.386;12.516;2023-11-19T19:41:57;99413.47;;;12.09;100.00
19748;BME280;10032;51.386;12.516;2023-11-19T19:44:22;99427.81;;;12.14;100.00
19748;BME280;10032;51.386;12.516;2023-11-19T19:46:47;99421.03;;;12.17;100.00
19748;BME280;10032;51.386;12.516;2023-11-19T19:49:13;99429.72;;;12.14;100.00
19748;BME280;10032;51.386;12.516;2023-11-19T19:51:38;99426.19;;;12.13;100.00
19748;BME280;10032;51.386;12.516;2023-11-19T19:54:04;99416.97;;;12.09;100.00
19748;BME280;10032;51.386;12.516;2023-11-19T19:56:29;99425.13;;;12.09;100.00
19748;BME280;10032;51.386;12.516;2023-11-19T19:58:55;99425.69;;;12.06;100.00
19748;BME280;10032;51.386;12.516;2023-11-19T20:01:20;99426.47;;;12.07;100.00
19748;BME280;10032;51.386;12.516;2023-11-19T20:03:45;99421.06;;;12.07;100.00
19748;BME280;10032;51.386;12.516;2023-11-19T20:06:11;99427.31;;;12.07;100.00
19748;BME280;10032;51.386;12.516;2023-11-19T20:08:38;99424.03;;;12.05;100.00
19748;BME280;10032;51.386;12.516;2023-11-19T20:11:04;99419.69;;;12.09;100.00
19748;BME280;10032;51.386;12.516;2023-11-19T20:13:32;99424.31;;;12.09;100.00
19748;BME280;10032;51.386;12.516;2023-11-19T20:15:58;99418.06;;;12.08;100.00
19748;BME280;10032;51.386;12.516;2023-11-19T20:18:23;99426.75;;;12.10;100.00
19748;BME280;10032;51.386;12.516;2023-11-19T20:20:48;99429.75;;;12.09;100.00
19748;BME280;10032;51.386;12.516;2023-11-19T20:23:14;99434.88;;;12.10;100.00
19748;BME280;10032;51.386;12.516;2023-11-19T20:25:39;99431.66;;;12.08;100.00
19748;BME280;10032;51.386;12.516;2023-11-19T20:28:05;99439.78;;;12.08;100.00
19748;BME280;10032;51.386;12.516;2023-11-19T20:30:30;99444.13;;;12.04;100.00
19748;BME280;10032;51.386;12.516;2023-11-19T20:32:56;99439.28;;;12.01;100.00
19748;BME280;10032;51.386;12.516;2023-11-19T20:35:21;99440.66;;;11.99;100.00
19748;BME280;10032;51.386;12.516;2023-11-19T20:37:47;99444.41;;;11.98;100.00
19748;BME280;10032;51.386;12.516;2023-11-19T20:40:12;99442.00;;;11.96;100.00
19748;BME280;10032;51.386;12.516;2023-11-19T20:42:38;99435.47;;;11.97;100.00
19748;BME280;10032;51.386;12.516;2023-11-19T20:45:07;99441.19;;;11.96;100.00
19748;BME280;10032;51.386;12.516;2023-11-19T20:47:39;99442.81;;;11.97;100.00
19748;BME280;10032;51.386;12.516;2023-11-19T20:50:05;99447.44;;;11.96;100.00
19748;BME280;10032;51.386;12.516;2023-11-19T20:52:36;99434.38;;;11.98;100.00
19748;BME280;10032;51.386;12.516;2023-11-19T20:55:04;99436.59;;;11.96;100.00
19748;BME280;10032;51.386;12.516;2023-11-19T20:57:30;99440.91;;;11.97;100.00
19748;BME280;10032;51.386;12.516;2023-11-19T20:59:56;99433.56;;;11.98;100.00
19748;BME280;10032;51.386;12.516;2023-11-19T21:02:21;99432.50;;;11.99;100.00
19748;BME280;10032;51.386;12.516;2023-11-19T21:04:48;99432.19;;;12.00;100.00
19748;BME280;10032;51.386;12.516;2023-11-19T21:07:13;99429.22;;;12.02;100.00
19748;BME280;10032;51.386;12.516;2023-11-19T21:09:39;99427.31;;;12.07;100.00
19748;BME280;10032;51.386;12.516;2023-11-19T21:12:04;99427.84;;;12.04;100.00
19748;BME280;10032;51.386;12.516;2023-11-19T21:14:30;99430.56;;;12.04;100.00
19748;BME280;10032;51.386;12.516;2023-11-19T21:16:57;99422.41;;;12.04;100.00
19748;BME280;10032;51.386;12.516;2023-11-19T21:19:23;99427.84;;;12.04;100.00
19748;BME280;10032;51.386;12.516;2023-11-19T21:21:48;99426.78;;;12.00;100.00
19748;BME280;10032;51.386;12.516;2023-11-19T21:24:13;99423.81;;;11.97;100.00
19748;BME280;10032;51.386;12.516;2023-11-19T21:26:39;99423.00;;;12.01;100.00
19748;BME280;10032;51.386;12.516;2023-11-19T21:29:04;99421.91;;;12.02;100.00
19748;BME280;10032;51.386;12.516;2023-11-19T21:31:30;99423.25;;;12.05;100.00
19748;BME280;10032;51.386;12.516;2023-11-19T21:33:56;99420.25;;;12.06;100.00
19748;BME280;10032;51.386;12.516;2023-11-19T21:36:22;99420.25;;;12.06;100.00
19748;BME280;10032;51.386;12.516;2023-11-19T21:38:49;99423.50;;;12.08;100.00
19748;BME280;10032;51.386;12.516;2023-11-19T21:41:15;99425.69;;;12.11;100.00
19748;BME280;10032;51.386;12.516;2023-11-19T21:43:40;99423.50;;;12.08;100.00
19748;BME280;10032;51.386;12.516;2023-11-19T21:46:05;99418.06;;;12.08;100.00
19748;BME280;10032;51.386;12.516;2023-11-19T21:48:31;99413.72;;;12.07;100.00
19748;BME280;10032;51.386;12.516;2023-11-19T21:50:56;99413.47;;;12.09;100.00
19748;BME280;10032;51.386;12.516;2023-11-19T21:53:26;99407.75;;;12.05;100.00
19748;BME280;10032;51.386;12.516;2023-11-19T21:55:52;99416.19;;;12.04;100.00
19748;BME280;10032;51.386;12.516;2023-11-19T21:58:17;99409.13;;;12.03;100.00
19748;BME280;10032;51.386;12.516;2023-11-19T22:00:42;99410.47;;;12.00;100.00
19748;BME280;10032;51.386;12.516;2023-11-19T22:03:08;99407.25;;;11.98;100.00
19748;BME280;10032;51.386;12.516;2023-11-19T22:05:33;99414.03;;;11.96;100.00
19748;BME280;10032;51.386;12.516;2023-11-19T22:07:58;99406.47;;;11.93;100.00
19748;BME280;10032;51.386;12.516;2023-11-19T22:10:24;99411.09;;;11.87;100.00
19748;BME280;10032;51.386;12.516;2023-11-19T22:12:49;99411.91;;;11.88;100.00
19748;BME280;10032;51.386;12.516;2023-11-19T22:15:15;99413.53;;;11.89;100.00
19748;BME280;10032;51.386;12.516;2023-11-19T22:17:40;99408.09;;;11.89;100.00
19748;BME280;10032;51.386;12.516;2023-11-19T22:20:06;99407.00;;;11.85;100.00
19748;BME280;10032;51.386;12.516;2023-11-19T22:22:32;99406.19;;;11.84;100.00
19748;BME280;10032;51.386;12.516;2023-11-19T22:24:57;99405.13;;;11.85;100.00
19748;BME280;10032;51.386;12.516;2023-11-19T22:27:23;99405.66;;;11.87;100.00
19748;BME280;10032;51.386;12.516;2023-11-19T22:29:48;99402.94;;;11.87;100.00
19748;BME280;10032;51.386;12.516;2023-11-19T22:32:14;99393.19;;;11.86;100.00
19748;BME280;10032;51.386;12.516;2023-11-19T22:34:39;99394.78;;;11.87;100.00
19748;BME280;10032;51.386;12.516;2023-11-19T22:37:05;99397.25;;;11.89;100.00
19748;BME280;10032;51.386;12.516;2023-11-19T22:39:31;99397.50;;;11.92;100.00
19748;BME280;10032;51.386;12.516;2023-11-19T22:41:56;99409.97;;;11.93;100.00
19748;BME280;10032;51.386;12.516;2023-11-19T22:44:21;99401.56;;;11.95;100.00
19748;BME280;10032;51.386;12.516;2023-11-19T22:46:48;99406.72;;;11.91;100.00
19748;BME280;10032;51.386;12.516;2023-11-19T22:49:14;99412.69;;;11.88;100.00
19748;BME280;10032;51.386;12.516;2023-11-19T22:51:39;99405.66;;;11.87;100.00
19748;BME280;10032;51.386;12.516;2023-11-19T22:54:05;99400.75;;;11.84;100.00
19748;BME280;10032;51.386;12.516;2023-11-19T22:56:30;99408.38;;;11.82;100.00
19748;BME280;10032;51.386;12.516;2023-11-19T22:58:55;99404.03;;;11.81;100.00
19748;BME280;10032;51.386;12.516;2023-11-19T23:01:21;99405.13;;;11.80;100.00
19748;BME280;10032;51.386;12.516;2023-11-19T23:03:47;99408.91;;;11.79;100.00
19748;BME280;10032;51.386;12.516;2023-11-19T23:06:12;99402.13;;;11.77;100.00
19748;BME280;10032;51.386;12.516;2023-11-19T23:08:38;99402.97;;;11.77;100.00
19748;BME280;10032;51.386;12.516;2023-11-19T23:11:04;99398.63;;;11.76;100.00
19748;BME280;10032;51.386;12.516;2023-11-19T23:13:31;99400.00;;;11.74;100.00
19748;BME280;10032;51.386;12.516;2023-11-19T23:15:57;99395.38;;;11.74;100.00
19748;BME280;10032;51.386;12.516;2023-11-19T23:18:26;99390.25;;;11.68;100.00
19748;BME280;10032;51.386;12.516;2023-11-19T23:20:52;99402.19;;;11.67;100.00
19748;BME280;10032;51.386;12.516;2023-11-19T23:23:17;99403.25;;;11.66;100.00
19748;BME280;10032;51.386;12.516;2023-11-19T23:25:43;99399.47;;;11.67;100.00
19748;BME280;10032;51.386;12.516;2023-11-19T23:28:09;99396.19;;;11.65;100.00
19748;BME280;10032;51.386;12.516;2023-11-19T23:30:34;99398.66;;;11.61;100.00
19748;BME280;10032;51.386;12.516;2023-11-19T23:33:00;99396.75;;;11.57;100.00
19748;BME280;10032;51.386;12.516;2023-11-19T23:35:25;99396.44;;;11.58;100.00
19748;BME280;10032;51.386;12.516;2023-11-19T23:37:51;99391.03;;;11.58;100.00
19748;BME280;10032;51.386;12.516;2023-11-19T23:40:17;99388.88;;;11.55;100.00
19748;BME280;10032;51.386;12.516;2023-11-19T23:42:43;99398.66;;;11.51;100.00
19748;BME280;10032;51.386;12.516;2023-11-19T23:45:09;99388.06;;;11.50;100.00
19748;BME280;10032;51.386;12.516;2023-11-19T23:47:35;99393.47;;;11.50;100.00
19748;BME280;10032;51.386;12.516;2023-11-19T23:50:00;99390.78;;;11.45;100.00
19748;BME280;10032;51.386;12.516;2023-11-19T23:52:26;99389.16;;;11.44;100.00
19748;BME280;10032;51.386;12.516;2023-11-19T23:54:51;99379.66;;;11.41;100.00
19748;BME280;10032;51.386;12.516;2023-11-19T23:57:16;99371.53;;;11.41;100.00
19748;BME280;10032;51.386;12.516;2023-11-19T23:59:42;99371.53;;;11.41;100.00
